sensor_id;sensor_type;location;lat;lon;timestamp;P1;durP1;ratioP1;P2;durP2;ratioP2
77136;SDS011;66102;48.542;-2.970;2023-02-28T00:00:12;8.43;;;1.63;;
77136;SDS011;66102;48.542;-2.970;2023-02-28T00:02:42;6.70;;;1.65;;
77136;SDS011;66102;48.542;-2.970;2023-02-28T00:05:09;8.10;;;1.70;;
77136;SDS011;66102;48.542;-2.970;2023-02-28T00:07:36;8.30;;;1.60;;
77136;SDS011;66102;48.542;-2.970;2023-02-28T00:10:02;9.43;;;1.70;;
77136;SDS011;66102;48.542;-2.970;2023-02-28T00:12:28;7.95;;;2.08;;
77136;SDS011;66102;48.542;-2.970;2023-02-28T00:14:54;6.93;;;1.92;;
77136;SDS011;66102;48.542;-2.970;2023-02-28T00:17:21;7.13;;;1.70;;
77136;SDS011;66102;48.542;-2.970;2023-02-28T00:19:47;9.57;;;2.22;;
77136;SDS011;66102;48.542;-2.970;2023-02-28T00:22:14;5.07;;;1.52;;
77136;SDS011;66102;48.542;-2.970;2023-02-28T00:24:40;10.75;;;1.92;;
77136;SDS011;66102;48.542;-2.970;2023-02-28T00:27:06;7.80;;;1.70;;
77136;SDS011;66102;48.542;-2.970;2023-02-28T00:29:32;7.00;;;1.25;;
77136;SDS011;66102;48.542;-2.970;2023-02-28T00:31:58;10.30;;;1.65;;
77136;SDS011;66102;48.542;-2.970;2023-02-28T00:34:24;6.75;;;1.35;;
77136;SDS011;66102;48.542;-2.970;2023-02-28T00:36:50;6.50;;;1.35;;
77136;SDS011;66102;48.542;-2.970;2023-02-28T00:39:17;7.93;;;1.80;;
77136;SDS011;66102;48.542;-2.970;2023-02-28T00:41:43;9.23;;;1.90;;
77136;SDS011;66102;48.542;-2.970;2023-02-28T00:44:09;9.25;;;1.58;;
77136;SDS011;66102;48.542;-2.970;2023-02-28T00:46:35;10.30;;;1.75;;
77136;SDS011;66102;48.542;-2.970;2023-02-28T00:49:01;6.22;;;1.85;;
77136;SDS011;66102;48.542;-2.970;2023-02-28T00:51:27;5.53;;;1.55;;
77136;SDS011;66102;48.542;-2.970;2023-02-28T00:53:53;7.22;;;1.75;;
77136;SDS011;66102;48.542;-2.970;2023-02-28T00:56:19;7.30;;;1.20;;
77136;SDS011;66102;48.542;-2.970;2023-02-28T00:58:46;6.18;;;1.70;;
77136;SDS011;66102;48.542;-2.970;2023-02-28T01:01:12;8.68;;;1.92;;
77136;SDS011;66102;48.542;-2.970;2023-02-28T01:03:38;6.35;;;2.08;;
77136;SDS011;66102;48.542;-2.970;2023-02-28T01:06:04;6.25;;;1.42;;
77136;SDS011;66102;48.542;-2.970;2023-02-28T01:08:30;7.22;;;1.33;;
77136;SDS011;66102;48.542;-2.970;2023-02-28T01:10:56;9.40;;;2.03;;
77136;SDS011;66102;48.542;-2.970;2023-02-28T01:13:22;9.43;;;2.08;;
77136;SDS011;66102;48.542;-2.970;2023-02-28T01:15:51;10.75;;;1.63;;
77136;SDS011;66102;48.542;-2.970;2023-02-28T01:18:17;8.48;;;1.80;;
77136;SDS011;66102;48.542;-2.970;2023-02-28T01:20:43;6.30;;;1.90;;
77136;SDS011;66102;48.542;-2.970;2023-02-28T01:23:11;7.30;;;1.58;;
77136;SDS011;66102;48.542;-2.970;2023-02-28T01:25:37;6.43;;;1.50;;
77136;SDS011;66102;48.542;-2.970;2023-02-28T01:28:04;7.03;;;1.52;;
77136;SDS011;66102;48.542;-2.970;2023-02-28T01:30:30;6.53;;;1.50;;
77136;SDS011;66102;48.542;-2.970;2023-02-28T01:32:56;7.20;;;1.60;;
77136;SDS011;66102;48.542;-2.970;2023-02-28T01:35:22;6.10;;;1.65;;
77136;SDS011;66102;48.542;-2.970;2023-02-28T01:37:49;8.32;;;2.10;;
77136;SDS011;66102;48.542;-2.970;2023-02-28T01:40:15;4.32;;;1.20;;
77136;SDS011;66102;48.542;-2.970;2023-02-28T01:42:41;7.72;;;2.15;;
77136;SDS011;66102;48.542;-2.970;2023-02-28T01:47:38;7.18;;;2.00;;
77136;SDS011;66102;48.542;-2.970;2023-02-28T01:50:06;6.95;;;1.80;;
77136;SDS011;66102;48.542;-2.970;2023-02-28T01:52:33;13.85;;;2.42;;
77136;SDS011;66102;48.542;-2.970;2023-02-28T01:55:00;7.78;;;2.38;;
77136;SDS011;66102;48.542;-2.970;2023-02-28T01:57:32;10.95;;;3.53;;
77136;SDS011;66102;48.542;-2.970;2023-02-28T02:00:04;12.88;;;3.75;;
77136;SDS011;66102;48.542;-2.970;2023-02-28T02:02:32;12.27;;;4.50;;
77136;SDS011;66102;48.542;-2.970;2023-02-28T02:04:59;11.48;;;4.18;;
77136;SDS011;66102;48.542;-2.970;2023-02-28T02:07:26;12.77;;;4.38;;
77136;SDS011;66102;48.542;-2.970;2023-02-28T02:10:03;13.57;;;4.82;;
77136;SDS011;66102;48.542;-2.970;2023-02-28T02:15:26;9.98;;;5.00;;
77136;SDS011;66102;48.542;-2.970;2023-02-28T02:17:55;13.48;;;5.15;;
77136;SDS011;66102;48.542;-2.970;2023-02-28T02:20:32;11.15;;;5.07;;
77136;SDS011;66102;48.542;-2.970;2023-02-28T02:23:20;13.13;;;6.18;;
77136;SDS011;66102;48.542;-2.970;2023-02-28T02:33:45;16.60;;;6.43;;
77136;SDS011;66102;48.542;-2.970;2023-02-28T02:39:05;15.32;;;7.68;;
77136;SDS011;66102;48.542;-2.970;2023-02-28T02:46:31;15.10;;;7.20;;
77136;SDS011;66102;48.542;-2.970;2023-02-28T02:49:00;16.27;;;7.53;;
77136;SDS011;66102;48.542;-2.970;2023-02-28T02:51:26;13.20;;;7.38;;
77136;SDS011;66102;48.542;-2.970;2023-02-28T02:54:09;15.68;;;6.78;;
77136;SDS011;66102;48.542;-2.970;2023-02-28T02:59:03;11.40;;;7.07;;
77136;SDS011;66102;48.542;-2.970;2023-02-28T03:01:30;15.73;;;6.32;;
77136;SDS011;66102;48.542;-2.970;2023-02-28T03:03:57;12.57;;;6.78;;
77136;SDS011;66102;48.542;-2.970;2023-02-28T03:06:24;12.82;;;7.18;;
77136;SDS011;66102;48.542;-2.970;2023-02-28T03:08:50;13.23;;;7.45;;
77136;SDS011;66102;48.542;-2.970;2023-02-28T03:11:16;12.98;;;6.18;;
77136;SDS011;66102;48.542;-2.970;2023-02-28T03:18:43;12.63;;;6.57;;
77136;SDS011;66102;48.542;-2.970;2023-02-28T03:21:14;11.15;;;6.95;;
77136;SDS011;66102;48.542;-2.970;2023-02-28T03:26:28;18.48;;;6.15;;
77136;SDS011;66102;48.542;-2.970;2023-02-28T03:31:48;11.55;;;6.90;;
77136;SDS011;66102;48.542;-2.970;2023-02-28T03:34:18;11.60;;;6.75;;
77136;SDS011;66102;48.542;-2.970;2023-02-28T03:36:47;13.68;;;7.20;;
77136;SDS011;66102;48.542;-2.970;2023-02-28T03:39:14;12.55;;;6.82;;
77136;SDS011;66102;48.542;-2.970;2023-02-28T03:41:42;13.57;;;7.65;;
77136;SDS011;66102;48.542;-2.970;2023-02-28T03:44:17;16.63;;;7.35;;
77136;SDS011;66102;48.542;-2.970;2023-02-28T03:46:50;14.48;;;6.90;;
77136;SDS011;66102;48.542;-2.970;2023-02-28T03:49:24;12.52;;;8.00;;
77136;SDS011;66102;48.542;-2.970;2023-02-28T03:51:52;13.82;;;7.68;;
77136;SDS011;66102;48.542;-2.970;2023-02-28T03:54:27;13.93;;;7.68;;
77136;SDS011;66102;48.542;-2.970;2023-02-28T03:56:59;14.32;;;7.30;;
77136;SDS011;66102;48.542;-2.970;2023-02-28T03:59:30;14.45;;;7.78;;
77136;SDS011;66102;48.542;-2.970;2023-02-28T04:01:58;12.73;;;7.38;;
77136;SDS011;66102;48.542;-2.970;2023-02-28T04:04:24;13.20;;;7.93;;
77136;SDS011;66102;48.542;-2.970;2023-02-28T04:06:52;14.32;;;8.35;;
77136;SDS011;66102;48.542;-2.970;2023-02-28T04:09:19;13.05;;;8.40;;
77136;SDS011;66102;48.542;-2.970;2023-02-28T04:11:45;15.07;;;8.45;;
77136;SDS011;66102;48.542;-2.970;2023-02-28T04:14:14;12.57;;;7.88;;
77136;SDS011;66102;48.542;-2.970;2023-02-28T04:16:41;15.55;;;9.15;;
77136;SDS011;66102;48.542;-2.970;2023-02-28T04:19:08;14.52;;;8.05;;
77136;SDS011;66102;48.542;-2.970;2023-02-28T04:21:35;14.77;;;8.18;;
77136;SDS011;66102;48.542;-2.970;2023-02-28T04:24:04;14.27;;;8.63;;
77136;SDS011;66102;48.542;-2.970;2023-02-28T04:26:30;12.48;;;7.72;;
77136;SDS011;66102;48.542;-2.970;2023-02-28T04:28:56;19.85;;;9.32;;
77136;SDS011;66102;48.542;-2.970;2023-02-28T04:31:22;14.77;;;8.98;;
77136;SDS011;66102;48.542;-2.970;2023-02-28T04:33:48;15.70;;;9.30;;
77136;SDS011;66102;48.542;-2.970;2023-02-28T04:36:14;16.42;;;9.07;;
77136;SDS011;66102;48.542;-2.970;2023-02-28T04:38:43;14.43;;;8.52;;
77136;SDS011;66102;48.542;-2.970;2023-02-28T04:41:09;16.60;;;9.93;;
77136;SDS011;66102;48.542;-2.970;2023-02-28T04:43:35;16.75;;;10.02;;
77136;SDS011;66102;48.542;-2.970;2023-02-28T04:46:02;18.90;;;10.05;;
77136;SDS011;66102;48.542;-2.970;2023-02-28T04:48:29;19.67;;;10.30;;
77136;SDS011;66102;48.542;-2.970;2023-02-28T04:50:55;21.25;;;10.98;;
77136;SDS011;66102;48.542;-2.970;2023-02-28T04:53:25;20.50;;;10.98;;
77136;SDS011;66102;48.542;-2.970;2023-02-28T04:55:51;16.80;;;9.40;;
77136;SDS011;66102;48.542;-2.970;2023-02-28T04:58:17;18.42;;;10.57;;
77136;SDS011;66102;48.542;-2.970;2023-02-28T05:00:43;14.77;;;8.57;;
77136;SDS011;66102;48.542;-2.970;2023-02-28T05:03:09;17.05;;;9.60;;
77136;SDS011;66102;48.542;-2.970;2023-02-28T05:05:35;20.40;;;8.95;;
77136;SDS011;66102;48.542;-2.970;2023-02-28T05:08:01;14.93;;;8.80;;
77136;SDS011;66102;48.542;-2.970;2023-02-28T05:10:27;17.15;;;8.13;;
77136;SDS011;66102;48.542;-2.970;2023-02-28T05:12:53;15.48;;;8.40;;
77136;SDS011;66102;48.542;-2.970;2023-02-28T05:15:19;12.45;;;7.57;;
77136;SDS011;66102;48.542;-2.970;2023-02-28T05:17:45;14.63;;;7.63;;
77136;SDS011;66102;48.542;-2.970;2023-02-28T05:20:11;10.57;;;7.00;;
77136;SDS011;66102;48.542;-2.970;2023-02-28T05:22:41;13.00;;;6.97;;
77136;SDS011;66102;48.542;-2.970;2023-02-28T05:25:08;14.00;;;7.75;;
77136;SDS011;66102;48.542;-2.970;2023-02-28T05:27:37;12.70;;;7.15;;
77136;SDS011;66102;48.542;-2.970;2023-02-28T05:30:03;13.27;;;6.95;;
77136;SDS011;66102;48.542;-2.970;2023-02-28T05:32:31;16.42;;;7.57;;
77136;SDS011;66102;48.542;-2.970;2023-02-28T05:34:57;13.68;;;7.47;;
77136;SDS011;66102;48.542;-2.970;2023-02-28T05:37:23;13.38;;;6.90;;
77136;SDS011;66102;48.542;-2.970;2023-02-28T05:39:49;14.38;;;6.95;;
77136;SDS011;66102;48.542;-2.970;2023-02-28T05:42:15;11.27;;;6.75;;
77136;SDS011;66102;48.542;-2.970;2023-02-28T05:44:41;13.45;;;8.30;;
77136;SDS011;66102;48.542;-2.970;2023-02-28T05:47:07;13.05;;;7.38;;
77136;SDS011;66102;48.542;-2.970;2023-02-28T05:49:33;10.45;;;7.05;;
77136;SDS011;66102;48.542;-2.970;2023-02-28T05:51:59;16.52;;;7.53;;
77136;SDS011;66102;48.542;-2.970;2023-02-28T05:54:25;14.98;;;8.43;;
77136;SDS011;66102;48.542;-2.970;2023-02-28T05:56:51;13.35;;;6.93;;
77136;SDS011;66102;48.542;-2.970;2023-02-28T05:59:17;14.10;;;7.70;;
77136;SDS011;66102;48.542;-2.970;2023-02-28T06:01:44;11.45;;;6.68;;
77136;SDS011;66102;48.542;-2.970;2023-02-28T06:04:13;11.93;;;7.03;;
77136;SDS011;66102;48.542;-2.970;2023-02-28T06:06:42;12.68;;;6.93;;
77136;SDS011;66102;48.542;-2.970;2023-02-28T06:09:09;12.23;;;6.95;;
77136;SDS011;66102;48.542;-2.970;2023-02-28T06:11:36;14.50;;;7.03;;
77136;SDS011;66102;48.542;-2.970;2023-02-28T06:14:02;12.48;;;6.70;;
77136;SDS011;66102;48.542;-2.970;2023-02-28T06:16:29;11.75;;;6.60;;
77136;SDS011;66102;48.542;-2.970;2023-02-28T06:18:59;12.45;;;7.45;;
77136;SDS011;66102;48.542;-2.970;2023-02-28T06:21:25;13.23;;;7.15;;
77136;SDS011;66102;48.542;-2.970;2023-02-28T06:23:55;13.13;;;7.28;;
77136;SDS011;66102;48.542;-2.970;2023-02-28T06:26:21;10.27;;;6.22;;
77136;SDS011;66102;48.542;-2.970;2023-02-28T06:28:47;12.82;;;7.35;;
77136;SDS011;66102;48.542;-2.970;2023-02-28T06:31:14;13.88;;;7.55;;
77136;SDS011;66102;48.542;-2.970;2023-02-28T06:33:41;15.98;;;7.60;;
77136;SDS011;66102;48.542;-2.970;2023-02-28T06:36:08;13.50;;;7.13;;
77136;SDS011;66102;48.542;-2.970;2023-02-28T06:38:34;13.25;;;7.45;;
77136;SDS011;66102;48.542;-2.970;2023-02-28T06:41:01;14.15;;;7.45;;
77136;SDS011;66102;48.542;-2.970;2023-02-28T06:43:31;14.32;;;7.82;;
77136;SDS011;66102;48.542;-2.970;2023-02-28T06:45:58;13.80;;;8.07;;
77136;SDS011;66102;48.542;-2.970;2023-02-28T06:48:25;13.65;;;6.90;;
77136;SDS011;66102;48.542;-2.970;2023-02-28T06:50:52;13.13;;;6.95;;
77136;SDS011;66102;48.542;-2.970;2023-02-28T06:53:18;12.82;;;7.28;;
77136;SDS011;66102;48.542;-2.970;2023-02-28T06:55:45;13.98;;;7.57;;
77136;SDS011;66102;48.542;-2.970;2023-02-28T06:58:11;15.02;;;7.35;;
77136;SDS011;66102;48.542;-2.970;2023-02-28T07:00:42;16.02;;;7.80;;
77136;SDS011;66102;48.542;-2.970;2023-02-28T07:03:09;15.88;;;8.82;;
77136;SDS011;66102;48.542;-2.970;2023-02-28T07:05:35;12.20;;;7.70;;
77136;SDS011;66102;48.542;-2.970;2023-02-28T07:08:02;13.50;;;8.02;;
77136;SDS011;66102;48.542;-2.970;2023-02-28T07:10:28;13.38;;;7.78;;
77136;SDS011;66102;48.542;-2.970;2023-02-28T07:12:54;15.93;;;7.97;;
77136;SDS011;66102;48.542;-2.970;2023-02-28T07:15:20;13.48;;;9.15;;
77136;SDS011;66102;48.542;-2.970;2023-02-28T07:17:46;14.38;;;8.13;;
77136;SDS011;66102;48.542;-2.970;2023-02-28T07:20:12;13.82;;;8.18;;
77136;SDS011;66102;48.542;-2.970;2023-02-28T07:22:38;14.32;;;8.18;;
77136;SDS011;66102;48.542;-2.970;2023-02-28T07:25:12;14.65;;;8.32;;
77136;SDS011;66102;48.542;-2.970;2023-02-28T07:27:38;12.45;;;7.70;;
77136;SDS011;66102;48.542;-2.970;2023-02-28T07:30:04;17.85;;;9.30;;
77136;SDS011;66102;48.542;-2.970;2023-02-28T07:32:30;15.48;;;8.88;;
77136;SDS011;66102;48.542;-2.970;2023-02-28T07:34:57;15.52;;;9.18;;
77136;SDS011;66102;48.542;-2.970;2023-02-28T07:37:23;16.40;;;8.07;;
77136;SDS011;66102;48.542;-2.970;2023-02-28T07:39:49;14.20;;;7.45;;
77136;SDS011;66102;48.542;-2.970;2023-02-28T07:42:16;12.93;;;6.97;;
77136;SDS011;66102;48.542;-2.970;2023-02-28T07:44:42;17.65;;;7.30;;
77136;SDS011;66102;48.542;-2.970;2023-02-28T07:47:09;18.17;;;8.60;;
77136;SDS011;66102;48.542;-2.970;2023-02-28T07:49:35;12.60;;;7.03;;
77136;SDS011;66102;48.542;-2.970;2023-02-28T07:52:05;13.25;;;7.22;;
77136;SDS011;66102;48.542;-2.970;2023-02-28T07:54:32;16.77;;;8.20;;
77136;SDS011;66102;48.542;-2.970;2023-02-28T07:56:58;13.18;;;7.88;;
77136;SDS011;66102;48.542;-2.970;2023-02-28T07:59:24;14.05;;;8.30;;
77136;SDS011;66102;48.542;-2.970;2023-02-28T08:01:50;12.63;;;7.70;;
77136;SDS011;66102;48.542;-2.970;2023-02-28T08:04:17;17.48;;;8.48;;
77136;SDS011;66102;48.542;-2.970;2023-02-28T08:06:43;14.80;;;8.05;;
77136;SDS011;66102;48.542;-2.970;2023-02-28T08:09:09;15.55;;;8.52;;
77136;SDS011;66102;48.542;-2.970;2023-02-28T08:11:36;13.93;;;7.18;;
77136;SDS011;66102;48.542;-2.970;2023-02-28T08:14:02;14.70;;;8.35;;
77136;SDS011;66102;48.542;-2.970;2023-02-28T08:16:28;11.95;;;6.90;;
77136;SDS011;66102;48.542;-2.970;2023-02-28T08:18:54;12.55;;;6.85;;
77136;SDS011;66102;48.542;-2.970;2023-02-28T08:21:21;13.60;;;7.20;;
77136;SDS011;66102;48.542;-2.970;2023-02-28T08:23:47;9.77;;;5.75;;
77136;SDS011;66102;48.542;-2.970;2023-02-28T08:26:14;8.93;;;5.65;;
77136;SDS011;66102;48.542;-2.970;2023-02-28T08:28:40;9.73;;;5.57;;
77136;SDS011;66102;48.542;-2.970;2023-02-28T08:31:07;11.07;;;6.07;;
77136;SDS011;66102;48.542;-2.970;2023-02-28T08:33:33;9.15;;;5.60;;
77136;SDS011;66102;48.542;-2.970;2023-02-28T08:35:59;9.63;;;6.30;;
77136;SDS011;66102;48.542;-2.970;2023-02-28T08:38:25;12.45;;;5.63;;
77136;SDS011;66102;48.542;-2.970;2023-02-28T08:40:58;12.60;;;5.53;;
77136;SDS011;66102;48.542;-2.970;2023-02-28T08:43:25;12.75;;;5.95;;
77136;SDS011;66102;48.542;-2.970;2023-02-28T08:45:51;11.15;;;5.18;;
77136;SDS011;66102;48.542;-2.970;2023-02-28T08:48:17;8.60;;;4.75;;
77136;SDS011;66102;48.542;-2.970;2023-02-28T08:50:44;9.38;;;5.30;;
77136;SDS011;66102;48.542;-2.970;2023-02-28T08:53:10;9.48;;;4.88;;
77136;SDS011;66102;48.542;-2.970;2023-02-28T08:55:36;9.85;;;4.90;;
77136;SDS011;66102;48.542;-2.970;2023-02-28T08:58:02;8.73;;;5.43;;
77136;SDS011;66102;48.542;-2.970;2023-02-28T09:00:28;10.05;;;5.10;;
77136;SDS011;66102;48.542;-2.970;2023-02-28T09:02:54;11.60;;;4.97;;
77136;SDS011;66102;48.542;-2.970;2023-02-28T09:05:20;8.73;;;4.75;;
77136;SDS011;66102;48.542;-2.970;2023-02-28T09:07:46;10.93;;;5.60;;
77136;SDS011;66102;48.542;-2.970;2023-02-28T09:10:12;11.93;;;6.22;;
77136;SDS011;66102;48.542;-2.970;2023-02-28T09:12:38;8.60;;;5.40;;
77136;SDS011;66102;48.542;-2.970;2023-02-28T09:15:05;10.68;;;6.07;;
77136;SDS011;66102;48.542;-2.970;2023-02-28T09:17:31;10.23;;;6.13;;
77136;SDS011;66102;48.542;-2.970;2023-02-28T09:19:57;14.23;;;7.20;;
77136;SDS011;66102;48.542;-2.970;2023-02-28T09:22:23;10.50;;;5.68;;
77136;SDS011;66102;48.542;-2.970;2023-02-28T09:24:49;7.70;;;4.30;;
77136;SDS011;66102;48.542;-2.970;2023-02-28T09:27:15;9.27;;;5.30;;
77136;SDS011;66102;48.542;-2.970;2023-02-28T09:29:41;10.57;;;5.60;;
77136;SDS011;66102;48.542;-2.970;2023-02-28T09:32:07;7.75;;;4.57;;
77136;SDS011;66102;48.542;-2.970;2023-02-28T09:34:33;8.27;;;4.57;;
77136;SDS011;66102;48.542;-2.970;2023-02-28T09:37:01;11.23;;;5.20;;
77136;SDS011;66102;48.542;-2.970;2023-02-28T09:39:28;10.25;;;6.03;;
77136;SDS011;66102;48.542;-2.970;2023-02-28T09:41:54;8.27;;;5.45;;
77136;SDS011;66102;48.542;-2.970;2023-02-28T09:44:37;10.48;;;5.00;;
77136;SDS011;66102;48.542;-2.970;2023-02-28T09:47:10;10.25;;;5.18;;
77136;SDS011;66102;48.542;-2.970;2023-02-28T09:49:40;12.50;;;5.47;;
77136;SDS011;66102;48.542;-2.970;2023-02-28T09:52:10;12.38;;;5.30;;
77136;SDS011;66102;48.542;-2.970;2023-02-28T09:54:37;9.68;;;5.10;;
77136;SDS011;66102;48.542;-2.970;2023-02-28T09:57:11;11.15;;;6.45;;
77136;SDS011;66102;48.542;-2.970;2023-02-28T09:59:52;11.38;;;5.60;;
77136;SDS011;66102;48.542;-2.970;2023-02-28T10:05:16;10.52;;;5.60;;
77136;SDS011;66102;48.542;-2.970;2023-02-28T10:10:55;10.15;;;5.63;;
77136;SDS011;66102;48.542;-2.970;2023-02-28T10:12:56;8.82;;;5.50;;
77136;SDS011;66102;48.542;-2.970;2023-02-28T10:15:29;15.57;;;6.00;;
77136;SDS011;66102;48.542;-2.970;2023-02-28T10:17:57;9.32;;;5.40;;
77136;SDS011;66102;48.542;-2.970;2023-02-28T10:20:25;9.93;;;5.82;;
77136;SDS011;66102;48.542;-2.970;2023-02-28T10:25:28;11.13;;;5.75;;
77136;SDS011;66102;48.542;-2.970;2023-02-28T10:28:37;11.25;;;5.53;;
77136;SDS011;66102;48.542;-2.970;2023-02-28T10:30:48;9.20;;;6.25;;
77136;SDS011;66102;48.542;-2.970;2023-02-28T10:33:30;11.32;;;5.97;;
77136;SDS011;66102;48.542;-2.970;2023-02-28T10:35:57;12.15;;;5.57;;
77136;SDS011;66102;48.542;-2.970;2023-02-28T10:38:24;13.18;;;5.93;;
77136;SDS011;66102;48.542;-2.970;2023-02-28T10:40:51;11.07;;;6.05;;
77136;SDS011;66102;48.542;-2.970;2023-02-28T10:43:18;11.15;;;5.82;;
77136;SDS011;66102;48.542;-2.970;2023-02-28T10:46:04;11.32;;;5.72;;
77136;SDS011;66102;48.542;-2.970;2023-02-28T10:51:00;12.35;;;6.00;;
77136;SDS011;66102;48.542;-2.970;2023-02-28T10:56:03;10.25;;;5.35;;
77136;SDS011;66102;48.542;-2.970;2023-02-28T10:58:31;16.70;;;5.38;;
77136;SDS011;66102;48.542;-2.970;2023-02-28T11:00:58;13.40;;;5.68;;
77136;SDS011;66102;48.542;-2.970;2023-02-28T11:05:50;10.13;;;6.45;;
77136;SDS011;66102;48.542;-2.970;2023-02-28T11:08:17;12.20;;;6.00;;
77136;SDS011;66102;48.542;-2.970;2023-02-28T11:10:47;11.38;;;5.85;;
77136;SDS011;66102;48.542;-2.970;2023-02-28T11:13:17;9.65;;;5.78;;
77136;SDS011;66102;48.542;-2.970;2023-02-28T11:15:58;12.02;;;6.05;;
77136;SDS011;66102;48.542;-2.970;2023-02-28T11:18:27;12.70;;;6.30;;
77136;SDS011;66102;48.542;-2.970;2023-02-28T11:20:55;11.43;;;5.78;;
77136;SDS011;66102;48.542;-2.970;2023-02-28T11:23:22;15.90;;;6.10;;
77136;SDS011;66102;48.542;-2.970;2023-02-28T11:25:51;11.70;;;6.13;;
77136;SDS011;66102;48.542;-2.970;2023-02-28T11:31:15;9.27;;;5.93;;
77136;SDS011;66102;48.542;-2.970;2023-02-28T11:33:49;11.73;;;6.07;;
77136;SDS011;66102;48.542;-2.970;2023-02-28T11:36:20;9.20;;;5.50;;
77136;SDS011;66102;48.542;-2.970;2023-02-28T11:38:49;13.50;;;5.93;;
77136;SDS011;66102;48.542;-2.970;2023-02-28T11:44:05;9.07;;;5.45;;
77136;SDS011;66102;48.542;-2.970;2023-02-28T11:49:03;13.50;;;6.15;;
77136;SDS011;66102;48.542;-2.970;2023-02-28T11:51:35;9.43;;;5.60;;
77136;SDS011;66102;48.542;-2.970;2023-02-28T11:54:12;13.43;;;6.60;;
77136;SDS011;66102;48.542;-2.970;2023-02-28T11:56:50;11.88;;;6.10;;
77136;SDS011;66102;48.542;-2.970;2023-02-28T11:59:34;13.65;;;6.43;;
77136;SDS011;66102;48.542;-2.970;2023-02-28T12:07:31;12.82;;;6.72;;
77136;SDS011;66102;48.542;-2.970;2023-02-28T12:12:33;12.68;;;7.35;;
77136;SDS011;66102;48.542;-2.970;2023-02-28T12:22:53;11.40;;;5.90;;
77136;SDS011;66102;48.542;-2.970;2023-02-28T12:25:22;11.43;;;6.57;;
77136;SDS011;66102;48.542;-2.970;2023-02-28T12:27:50;11.02;;;6.18;;
77136;SDS011;66102;48.542;-2.970;2023-02-28T12:30:22;14.00;;;6.18;;
77136;SDS011;66102;48.542;-2.970;2023-02-28T12:33:00;11.90;;;5.70;;
77136;SDS011;66102;48.542;-2.970;2023-02-28T12:35:32;9.45;;;5.57;;
77136;SDS011;66102;48.542;-2.970;2023-02-28T12:38:04;19.15;;;6.00;;
77136;SDS011;66102;48.542;-2.970;2023-02-28T12:41:13;12.13;;;6.53;;
77136;SDS011;66102;48.542;-2.970;2023-02-28T12:43:20;12.77;;;5.78;;
77136;SDS011;66102;48.542;-2.970;2023-02-28T12:45:50;12.40;;;6.00;;
77136;SDS011;66102;48.542;-2.970;2023-02-28T12:51:12;10.45;;;6.43;;
77136;SDS011;66102;48.542;-2.970;2023-02-28T13:03:44;10.77;;;6.45;;
77136;SDS011;66102;48.542;-2.970;2023-02-28T13:09:04;12.88;;;7.20;;
77136;SDS011;66102;48.542;-2.970;2023-02-28T13:11:42;13.82;;;7.50;;
77136;SDS011;66102;48.542;-2.970;2023-02-28T13:14:43;13.80;;;6.68;;
77136;SDS011;66102;48.542;-2.970;2023-02-28T13:17:09;12.35;;;6.57;;
77136;SDS011;66102;48.542;-2.970;2023-02-28T13:19:58;15.23;;;6.93;;
77136;SDS011;66102;48.542;-2.970;2023-02-28T13:24:56;12.25;;;6.70;;
77136;SDS011;66102;48.542;-2.970;2023-02-28T13:29:49;15.88;;;7.28;;
77136;SDS011;66102;48.542;-2.970;2023-02-28T13:53:34;14.75;;;6.28;;
77136;SDS011;66102;48.542;-2.970;2023-02-28T13:58:03;10.90;;;5.93;;
77136;SDS011;66102;48.542;-2.970;2023-02-28T14:08:37;10.63;;;4.47;;
77136;SDS011;66102;48.542;-2.970;2023-02-28T14:11:05;10.43;;;3.92;;
77136;SDS011;66102;48.542;-2.970;2023-02-28T14:13:41;8.85;;;3.35;;
77136;SDS011;66102;48.542;-2.970;2023-02-28T14:16:54;8.18;;;2.90;;
77136;SDS011;66102;48.542;-2.970;2023-02-28T14:19:09;11.20;;;3.50;;
77136;SDS011;66102;48.542;-2.970;2023-02-28T14:21:38;8.27;;;2.60;;
77136;SDS011;66102;48.542;-2.970;2023-02-28T14:29:12;9.93;;;2.47;;
77136;SDS011;66102;48.542;-2.970;2023-02-28T14:31:51;7.30;;;2.50;;
77136;SDS011;66102;48.542;-2.970;2023-02-28T14:35:10;9.75;;;2.90;;
77136;SDS011;66102;48.542;-2.970;2023-02-28T14:37:10;6.43;;;2.05;;
77136;SDS011;66102;48.542;-2.970;2023-02-28T14:39:40;8.43;;;2.60;;
77136;SDS011;66102;48.542;-2.970;2023-02-28T14:42:28;10.15;;;3.03;;
77136;SDS011;66102;48.542;-2.970;2023-02-28T14:44:56;8.60;;;2.95;;
77136;SDS011;66102;48.542;-2.970;2023-02-28T14:47:25;7.10;;;2.50;;
77136;SDS011;66102;48.542;-2.970;2023-02-28T14:49:58;10.85;;;2.40;;
77136;SDS011;66102;48.542;-2.970;2023-02-28T14:52:29;10.75;;;2.17;;
77136;SDS011;66102;48.542;-2.970;2023-02-28T14:54:58;5.35;;;1.50;;
77136;SDS011;66102;48.542;-2.970;2023-02-28T14:57:30;9.48;;;1.70;;
77136;SDS011;66102;48.542;-2.970;2023-02-28T15:00:01;9.45;;;2.17;;
77136;SDS011;66102;48.542;-2.970;2023-02-28T15:02:30;6.03;;;1.73;;
77136;SDS011;66102;48.542;-2.970;2023-02-28T15:04:58;7.97;;;1.77;;
77136;SDS011;66102;48.542;-2.970;2023-02-28T15:07:26;6.30;;;1.65;;
77136;SDS011;66102;48.542;-2.970;2023-02-28T15:10:15;7.25;;;1.60;;
77136;SDS011;66102;48.542;-2.970;2023-02-28T15:13:02;10.27;;;1.80;;
77136;SDS011;66102;48.542;-2.970;2023-02-28T15:18:40;7.22;;;1.83;;
77136;SDS011;66102;48.542;-2.970;2023-02-28T15:21:06;10.40;;;2.33;;
77136;SDS011;66102;48.542;-2.970;2023-02-28T15:23:34;9.98;;;1.58;;
77136;SDS011;66102;48.542;-2.970;2023-02-28T15:26:03;4.03;;;1.40;;
77136;SDS011;66102;48.542;-2.970;2023-02-28T15:28:30;5.90;;;1.30;;
77136;SDS011;66102;48.542;-2.970;2023-02-28T15:31:03;6.65;;;1.80;;
77136;SDS011;66102;48.542;-2.970;2023-02-28T15:33:51;10.15;;;2.75;;
77136;SDS011;66102;48.542;-2.970;2023-02-28T15:36:18;7.68;;;2.30;;
77136;SDS011;66102;48.542;-2.970;2023-02-28T15:38:50;10.00;;;2.55;;
77136;SDS011;66102;48.542;-2.970;2023-02-28T15:41:35;11.57;;;2.95;;
77136;SDS011;66102;48.542;-2.970;2023-02-28T15:47:04;8.95;;;1.88;;
77136;SDS011;66102;48.542;-2.970;2023-02-28T15:49:44;10.30;;;1.67;;
77136;SDS011;66102;48.542;-2.970;2023-02-28T15:52:15;11.07;;;2.03;;
77136;SDS011;66102;48.542;-2.970;2023-02-28T15:54:42;9.95;;;2.08;;
77136;SDS011;66102;48.542;-2.970;2023-02-28T15:57:13;8.65;;;2.13;;
77136;SDS011;66102;48.542;-2.970;2023-02-28T15:59:42;8.95;;;1.88;;
77136;SDS011;66102;48.542;-2.970;2023-02-28T16:02:18;7.82;;;1.75;;
77136;SDS011;66102;48.542;-2.970;2023-02-28T16:04:55;9.18;;;2.00;;
77136;SDS011;66102;48.542;-2.970;2023-02-28T16:07:21;5.93;;;1.65;;
77136;SDS011;66102;48.542;-2.970;2023-02-28T16:09:49;8.82;;;2.03;;
77136;SDS011;66102;48.542;-2.970;2023-02-28T16:12:15;7.75;;;2.22;;
77136;SDS011;66102;48.542;-2.970;2023-02-28T16:14:41;8.80;;;2.00;;
77136;SDS011;66102;48.542;-2.970;2023-02-28T16:17:19;7.28;;;2.25;;
77136;SDS011;66102;48.542;-2.970;2023-02-28T16:19:46;5.93;;;2.00;;
77136;SDS011;66102;48.542;-2.970;2023-02-28T16:22:12;21.10;;;5.50;;
77136;SDS011;66102;48.542;-2.970;2023-02-28T16:24:38;6.13;;;2.00;;
77136;SDS011;66102;48.542;-2.970;2023-02-28T16:27:05;13.65;;;3.58;;
77136;SDS011;66102;48.542;-2.970;2023-02-28T16:29:33;7.57;;;1.65;;
77136;SDS011;66102;48.542;-2.970;2023-02-28T16:32:00;6.80;;;1.88;;
77136;SDS011;66102;48.542;-2.970;2023-02-28T16:34:27;8.80;;;2.08;;
77136;SDS011;66102;48.542;-2.970;2023-02-28T16:36:53;10.82;;;2.30;;
77136;SDS011;66102;48.542;-2.970;2023-02-28T16:39:19;7.88;;;1.77;;
77136;SDS011;66102;48.542;-2.970;2023-02-28T16:41:45;10.85;;;2.53;;
77136;SDS011;66102;48.542;-2.970;2023-02-28T16:44:14;6.97;;;2.00;;
77136;SDS011;66102;48.542;-2.970;2023-02-28T16:46:46;8.35;;;2.13;;
77136;SDS011;66102;48.542;-2.970;2023-02-28T16:49:13;15.60;;;2.38;;
77136;SDS011;66102;48.542;-2.970;2023-02-28T16:51:39;6.40;;;1.80;;